createdAt,value
2017-05-18T00:01:02.130Z,13.60
2017-05-18T00:03:28.796Z,12.32
2017-05-18T00:05:55.464Z,12.00
2017-05-18T00:08:22.181Z,11.80
2017-05-18T00:10:48.853Z,11.64
2017-05-18T00:13:15.525Z,11.98
2017-05-18T00:15:42.220Z,11.46
2017-05-18T00:18:08.908Z,11.44
2017-05-18T00:20:35.586Z,11.08
2017-05-18T00:23:02.280Z,12.22
2017-05-18T00:25:28.952Z,16.10
2017-05-18T00:27:55.621Z,12.78
2017-05-18T00:30:22.337Z,12.30
2017-05-18T00:32:49.005Z,13.84
2017-05-18T00:35:15.679Z,12.96
2017-05-18T00:37:42.368Z,12.74
2017-05-18T00:40:09.055Z,13.50
2017-05-18T00:42:35.718Z,13.68
2017-05-18T00:45:02.615Z,19.34
2017-05-18T00:47:29.280Z,15.84
2017-05-18T00:49:55.949Z,15.70
2017-05-18T00:52:22.649Z,15.10
2017-05-18T00:54:49.318Z,14.82
2017-05-18T00:57:15.979Z,14.76
2017-05-18T00:59:42.703Z,14.86
2017-05-18T01:02:09.365Z,15.14
2017-05-18T01:04:36.072Z,14.16
2017-05-18T01:07:02.768Z,14.24
2017-05-18T01:09:29.437Z,12.06
2017-05-18T01:11:56.112Z,13.40
2017-05-18T01:14:22.827Z,12.82
2017-05-18T01:16:49.492Z,13.92
2017-05-18T01:19:16.178Z,17.16
2017-05-18T01:21:43.056Z,13.42
2017-05-18T01:24:09.724Z,13.80
2017-05-18T01:26:36.399Z,18.88
2017-05-18T01:29:03.319Z,14.22
2017-05-18T01:31:29.988Z,15.48
2017-05-18T01:33:56.653Z,15.50
2017-05-18T01:36:23.349Z,15.36
2017-05-18T01:38:50.017Z,13.38
2017-05-18T01:41:16.696Z,18.00
2017-05-18T01:43:43.757Z,15.54
2017-05-18T01:46:10.422Z,15.36
2017-05-18T01:48:37.093Z,15.38
2017-05-18T01:51:03.789Z,16.48
2017-05-18T01:53:30.461Z,16.20
2017-05-18T01:55:57.134Z,15.84
2017-05-18T01:58:23.844Z,14.36
2017-05-18T02:00:50.528Z,14.92
2017-05-18T02:03:17.221Z,16.46
2017-05-18T02:05:43.915Z,15.10
2017-05-18T02:08:10.587Z,14.78
2017-05-18T02:10:37.257Z,16.66
2017-05-18T02:13:03.952Z,15.88
2017-05-18T02:15:30.620Z,13.46
2017-05-18T02:17:57.286Z,15.28
2017-05-18T02:20:23.996Z,14.50
2017-05-18T02:22:50.660Z,16.02
2017-05-18T02:25:17.341Z,13.84
2017-05-18T02:27:44.037Z,14.60
2017-05-18T02:30:10.722Z,14.28
2017-05-18T02:32:37.390Z,15.42
2017-05-18T02:35:04.386Z,13.48
2017-05-18T02:37:31.082Z,14.52
2017-05-18T02:39:58.785Z,14.26
2017-05-18T02:42:25.448Z,15.18
2017-05-18T02:44:52.148Z,14.58
2017-05-18T02:47:18.824Z,15.06
2017-05-18T02:49:45.493Z,16.32
2017-05-18T02:52:12.181Z,15.94
2017-05-18T02:54:38.845Z,16.76
2017-05-18T02:57:05.514Z,16.76
2017-05-18T02:59:32.500Z,17.52
2017-05-18T03:01:59.173Z,16.26
2017-05-18T03:04:25.842Z,17.46
2017-05-18T03:06:52.538Z,17.50
2017-05-18T03:09:19.208Z,16.22
2017-05-18T03:11:45.877Z,16.70
2017-05-18T03:14:12.860Z,16.64
2017-05-18T03:16:39.528Z,16.62
2017-05-18T03:19:06.198Z,16.54
2017-05-18T03:21:33.160Z,17.28
2017-05-18T03:23:59.830Z,15.72
2017-05-18T03:26:26.498Z,17.48
2017-05-18T03:28:53.192Z,17.56
2017-05-18T03:31:19.864Z,18.36
2017-05-18T03:33:46.533Z,19.00
2017-05-18T03:36:13.342Z,17.30
2017-05-18T03:38:40.012Z,15.42
2017-05-18T03:41:06.697Z,18.14
2017-05-18T03:43:33.725Z,17.80
2017-05-18T03:46:00.389Z,18.36
2017-05-18T03:48:27.059Z,19.82
2017-05-18T03:50:54.042Z,17.14
2017-05-18T03:53:20.709Z,19.22
2017-05-18T03:55:47.374Z,17.42
2017-05-18T03:58:14.105Z,16.88
2017-05-18T04:00:40.772Z,16.48
2017-05-18T04:03:07.459Z,18.28
2017-05-18T04:05:34.151Z,18.04
2017-05-18T04:08:00.839Z,15.36
2017-05-18T04:10:27.505Z,17.18
2017-05-18T04:12:54.194Z,16.40
2017-05-18T04:15:20.856Z,15.40
2017-05-18T04:17:47.529Z,18.76
2017-05-18T04:20:14.225Z,16.72
2017-05-18T04:22:40.900Z,16.12
2017-05-18T04:25:07.560Z,15.64
2017-05-18T04:27:34.293Z,15.40
2017-05-18T04:30:00.960Z,15.22
2017-05-18T04:32:27.634Z,16.04
2017-05-18T04:34:54.325Z,15.58
2017-05-18T04:37:20.996Z,14.74
2017-05-18T04:39:47.669Z,15.52
2017-05-18T04:42:14.382Z,14.74
2017-05-18T04:44:41.051Z,15.52
2017-05-18T04:47:07.712Z,16.48
2017-05-18T04:49:34.778Z,15.46
2017-05-18T04:52:01.454Z,14.96
2017-05-18T04:54:28.121Z,16.02
2017-05-18T04:56:54.820Z,16.98
2017-05-18T04:59:21.483Z,17.30
2017-05-18T05:01:48.149Z,15.86
2017-05-18T05:04:14.869Z,16.84
2017-05-18T05:06:41.541Z,16.78
2017-05-18T05:09:08.673Z,17.36
2017-05-18T05:11:35.369Z,16.60
2017-05-18T05:14:02.039Z,16.90
2017-05-18T05:16:28.714Z,18.10
2017-05-18T05:18:55.414Z,16.84
2017-05-18T05:21:22.081Z,24.62
2017-05-18T05:23:48.770Z,16.96
2017-05-18T05:26:15.766Z,17.92
2017-05-18T05:28:42.460Z,17.06
2017-05-18T05:31:09.123Z,17.48
2017-05-18T05:33:35.827Z,18.82
2017-05-18T05:36:02.488Z,17.26
2017-05-18T05:38:29.157Z,16.40
2017-05-18T05:40:55.876Z,18.70
2017-05-18T05:43:22.543Z,17.00
2017-05-18T05:45:49.208Z,16.88
2017-05-18T05:48:15.909Z,18.26
2017-05-18T05:50:42.580Z,16.26
2017-05-18T05:53:09.248Z,17.32
2017-05-18T05:55:36.050Z,18.18
2017-05-18T05:58:02.722Z,16.50
2017-05-18T06:00:29.390Z,19.56
2017-05-18T06:02:56.376Z,15.82
2017-05-18T06:05:23.036Z,17.80
2017-05-18T06:07:49.704Z,16.12
2017-05-18T06:10:16.692Z,15.40
2017-05-18T06:12:43.362Z,16.16
2017-05-18T06:15:10.029Z,20.38
2017-05-18T06:17:36.725Z,15.22
2017-05-18T06:20:03.405Z,16.38
2017-05-18T06:22:30.070Z,16.16
2017-05-18T06:24:56.821Z,16.74
2017-05-18T06:27:23.485Z,17.50
2017-05-18T06:29:50.162Z,19.50
2017-05-18T06:32:16.861Z,18.22
2017-05-18T06:34:44.528Z,20.78
2017-05-18T06:37:11.197Z,17.60
2017-05-18T06:39:38.017Z,17.96
2017-05-18T06:42:04.684Z,21.44
2017-05-18T06:44:31.353Z,24.98
2017-05-18T06:46:58.064Z,20.92
2017-05-18T06:49:24.728Z,18.78
2017-05-18T06:51:51.400Z,16.74
2017-05-18T06:54:18.095Z,16.72
2017-05-18T06:56:44.760Z,25.22
2017-05-18T06:59:11.428Z,21.58
2017-05-18T07:01:38.124Z,15.68
2017-05-18T07:04:04.784Z,15.88
2017-05-18T07:06:31.455Z,17.88
2017-05-18T07:08:58.151Z,14.94
2017-05-18T07:11:24.820Z,13.84
2017-05-18T07:13:51.479Z,12.38
2017-05-18T07:16:18.203Z,14.16
2017-05-18T07:18:44.872Z,14.30
2017-05-18T07:21:11.540Z,14.00
2017-05-18T07:23:38.254Z,12.50
2017-05-18T07:26:04.923Z,12.94
2017-05-18T07:28:31.590Z,11.90
2017-05-18T07:30:58.396Z,11.90
2017-05-18T07:33:25.055Z,10.50
2017-05-18T07:35:51.716Z,10.44
2017-05-18T07:38:18.408Z,11.32
2017-05-18T07:40:45.073Z,10.70
2017-05-18T07:43:11.738Z,8.76
2017-05-18T07:45:38.434Z,9.76
2017-05-18T07:48:05.090Z,9.02
2017-05-18T07:50:31.758Z,8.10
2017-05-18T07:52:58.453Z,10.14
2017-05-18T07:55:25.120Z,10.66
2017-05-18T07:57:51.773Z,8.50
2017-05-18T08:00:18.484Z,10.94
2017-05-18T08:02:45.144Z,9.84
2017-05-18T08:05:11.804Z,8.06
2017-05-18T08:07:38.495Z,8.50
2017-05-18T08:10:05.161Z,10.62
2017-05-18T08:12:31.820Z,7.76
2017-05-18T08:14:59.474Z,11.62
2017-05-18T08:17:26.132Z,8.08
2017-05-18T08:19:52.789Z,8.50
2017-05-18T08:22:19.480Z,7.40
2017-05-18T08:24:46.160Z,21.48
2017-05-18T08:27:12.816Z,9.88
2017-05-18T08:29:39.778Z,11.70
2017-05-18T08:32:06.444Z,9.16
2017-05-18T08:34:33.112Z,10.52
2017-05-18T08:36:59.816Z,8.86
2017-05-18T08:39:26.481Z,8.16
2017-05-18T08:41:53.140Z,9.58
2017-05-18T08:44:19.828Z,10.64
2017-05-18T08:46:46.488Z,8.66
2017-05-18T08:49:13.144Z,8.22
2017-05-18T08:51:40.215Z,9.34
2017-05-18T08:54:06.885Z,10.78
2017-05-18T08:56:33.549Z,8.30
2017-05-18T08:59:00.516Z,8.14
2017-05-18T09:01:27.176Z,9.50
2017-05-18T09:03:53.831Z,8.90
2017-05-18T09:06:20.556Z,8.58
2017-05-18T09:08:47.218Z,7.60
2017-05-18T09:11:14.876Z,7.88
2017-05-18T09:13:41.571Z,8.74
2017-05-18T09:16:08.232Z,7.90
2017-05-18T09:18:34.893Z,8.18
2017-05-18T09:21:01.597Z,7.76
2017-05-18T09:23:28.256Z,10.48
2017-05-18T09:25:54.912Z,7.18
2017-05-18T09:28:21.601Z,10.68
2017-05-18T09:30:48.266Z,7.04
2017-05-18T09:33:14.933Z,7.74
2017-05-18T09:35:42.644Z,10.82
2017-05-18T09:38:09.307Z,6.48
2017-05-18T09:40:35.965Z,6.96
2017-05-18T09:43:02.758Z,7.08
2017-05-18T09:45:29.422Z,10.66
2017-05-18T09:47:56.085Z,6.38
2017-05-18T09:50:22.774Z,7.12
2017-05-18T09:52:49.436Z,6.30
2017-05-18T09:55:16.092Z,8.08
2017-05-18T09:57:43.801Z,7.16
2017-05-18T10:00:10.461Z,6.98
2017-05-18T10:02:37.118Z,6.82
2017-05-18T10:05:03.820Z,6.72
2017-05-18T10:07:30.486Z,8.86
2017-05-18T10:09:57.145Z,9.04
2017-05-18T10:12:23.834Z,6.90
2017-05-18T10:14:50.497Z,7.44
2017-05-18T10:17:17.148Z,7.46
2017-05-18T10:19:43.844Z,8.36
2017-05-18T10:22:10.510Z,6.56
2017-05-18T10:24:37.171Z,6.96
2017-05-18T10:27:03.860Z,6.52
2017-05-18T10:29:30.520Z,6.76
2017-05-18T10:31:57.188Z,6.76
2017-05-18T10:34:23.876Z,6.26
2017-05-18T10:36:50.536Z,7.26
2017-05-18T10:39:17.203Z,7.22
2017-05-18T10:41:43.893Z,7.54
2017-05-18T10:44:10.552Z,6.66
2017-05-18T10:46:37.212Z,7.48
2017-05-18T10:49:03.915Z,6.46
2017-05-18T10:51:30.571Z,7.24
2017-05-18T10:53:57.246Z,6.78
2017-05-18T10:56:23.942Z,6.56
2017-05-18T10:58:50.604Z,6.20
2017-05-18T11:01:17.257Z,7.70
2017-05-18T11:03:43.946Z,6.72
2017-05-18T11:06:10.603Z,5.98
2017-05-18T11:08:37.264Z,7.12
2017-05-18T11:11:04.053Z,6.22
2017-05-18T11:13:30.708Z,7.28
2017-05-18T11:15:57.421Z,9.22
2017-05-18T11:18:24.206Z,6.44
2017-05-18T11:20:50.857Z,6.02
2017-05-18T11:23:17.514Z,7.24
2017-05-18T11:25:44.548Z,5.32
2017-05-18T11:28:11.209Z,6.20
2017-05-18T11:30:38.864Z,8.02
2017-05-18T11:33:05.558Z,5.60
2017-05-18T11:35:32.216Z,5.42
2017-05-18T11:37:58.872Z,5.58
2017-05-18T11:40:25.574Z,6.74
2017-05-18T11:42:53.185Z,5.34
2017-05-18T11:45:19.847Z,5.34
2017-05-18T11:47:46.551Z,4.90
2017-05-18T11:50:13.225Z,4.70
2017-05-18T11:52:39.885Z,6.86
2017-05-18T11:55:06.573Z,4.62
2017-05-18T11:57:33.237Z,4.96
2017-05-18T11:59:59.897Z,4.28
2017-05-18T12:02:27.133Z,5.10
2017-05-18T12:04:53.792Z,5.04
2017-05-18T12:07:20.454Z,6.38
2017-05-18T12:09:47.152Z,4.66
2017-05-18T12:12:13.821Z,3.84
2017-05-18T12:14:40.480Z,4.34
2017-05-18T12:17:07.263Z,4.68
2017-05-18T12:19:33.928Z,4.92
2017-05-18T12:22:00.589Z,4.20
2017-05-18T12:24:27.278Z,4.02
2017-05-18T12:26:53.940Z,4.14
2017-05-18T12:29:20.604Z,4.64
2017-05-18T12:31:47.306Z,3.84
2017-05-18T12:34:13.970Z,4.46
2017-05-18T12:36:40.629Z,4.22
2017-05-18T12:39:07.321Z,4.20
2017-05-18T12:41:33.975Z,4.10
2017-05-18T12:44:00.636Z,4.68
2017-05-18T12:46:27.327Z,4.14
2017-05-18T12:48:53.983Z,3.74
2017-05-18T12:51:20.643Z,4.00
2017-05-18T12:53:47.343Z,6.32
2017-05-18T12:56:14.007Z,3.92
2017-05-18T12:58:40.666Z,4.34
2017-05-18T13:01:07.363Z,4.16
2017-05-18T13:03:34.028Z,5.74
2017-05-18T13:06:00.687Z,4.80
2017-05-18T13:08:27.378Z,8.26
2017-05-18T13:10:54.034Z,7.56
2017-05-18T13:13:20.696Z,15.86
2017-05-18T13:15:47.396Z,8.26
2017-05-18T13:18:14.060Z,4.72
2017-05-18T13:20:40.727Z,5.08
2017-05-18T13:23:07.420Z,5.20
2017-05-18T13:25:34.080Z,5.46
2017-05-18T13:28:00.741Z,5.70
2017-05-18T13:30:27.439Z,5.20
2017-05-18T13:32:54.097Z,5.66
2017-05-18T13:35:20.760Z,5.42
2017-05-18T13:37:47.688Z,5.38
2017-05-18T13:40:14.345Z,5.38
2017-05-18T13:42:41.006Z,4.94
2017-05-18T13:45:07.689Z,5.30
2017-05-18T13:47:34.353Z,5.14
2017-05-18T13:50:01.008Z,5.20
2017-05-18T13:52:27.712Z,5.70
2017-05-18T13:54:54.368Z,5.36
2017-05-18T13:57:21.024Z,4.98
2017-05-18T13:59:47.719Z,5.30
2017-05-18T14:02:14.372Z,5.72
2017-05-18T14:04:41.038Z,4.98
2017-05-18T14:07:07.816Z,5.72
2017-05-18T14:09:34.480Z,4.58
2017-05-18T14:12:01.135Z,5.74
2017-05-18T14:14:27.830Z,5.08
2017-05-18T14:16:54.492Z,4.70
2017-05-18T14:19:21.149Z,4.92
2017-05-18T14:21:47.844Z,5.28
2017-05-18T14:24:14.500Z,4.92
2017-05-18T14:26:41.161Z,5.12
2017-05-18T14:29:07.848Z,5.26
2017-05-18T14:31:34.514Z,5.28
2017-05-18T14:34:01.171Z,5.28
2017-05-18T14:36:27.880Z,5.28
2017-05-18T14:38:54.536Z,5.30
2017-05-18T14:41:21.198Z,5.80
2017-05-18T14:43:47.895Z,5.82
2017-05-18T14:46:14.558Z,4.92
2017-05-18T14:48:41.239Z,4.90
2017-05-18T14:51:07.937Z,7.18
2017-05-18T14:53:34.614Z,5.86
2017-05-18T14:56:01.350Z,6.00
2017-05-18T14:58:28.041Z,5.72
2017-05-18T15:00:54.725Z,5.68
2017-05-18T15:03:21.419Z,6.22
2017-05-18T15:05:48.146Z,5.20
2017-05-18T15:08:14.800Z,5.28
2017-05-18T15:10:41.522Z,6.52
2017-05-18T15:13:08.228Z,4.80
2017-05-18T15:15:34.891Z,7.80
2017-05-18T15:18:01.559Z,13.40
2017-05-18T15:20:28.272Z,5.30
2017-05-18T15:22:54.961Z,7.50
2017-05-18T15:25:21.852Z,5.10
2017-05-18T15:27:48.509Z,5.12
2017-05-18T15:30:15.169Z,9.84
2017-05-18T15:32:41.835Z,5.36
2017-05-18T15:35:08.534Z,5.48
2017-05-18T15:37:35.213Z,6.12
2017-05-18T15:40:01.882Z,7.34
2017-05-18T15:42:28.583Z,5.60
2017-05-18T15:44:55.244Z,5.02
2017-05-18T15:47:21.906Z,5.48
2017-05-18T15:49:48.592Z,4.98
2017-05-18T15:52:15.249Z,5.00
2017-05-18T15:54:41.907Z,5.20
2017-05-18T15:57:08.602Z,5.12
2017-05-18T15:59:35.266Z,4.62
2017-05-18T16:02:01.929Z,4.90
2017-05-18T16:04:28.618Z,4.30
2017-05-18T16:06:55.277Z,4.24
2017-05-18T16:09:21.936Z,4.56
2017-05-18T16:11:48.652Z,4.74
2017-05-18T16:14:15.381Z,4.26
2017-05-18T16:16:42.049Z,4.52
2017-05-18T16:19:08.741Z,6.00
2017-05-18T16:21:35.407Z,3.70
2017-05-18T16:24:02.067Z,3.94
2017-05-18T16:26:28.794Z,4.12
2017-05-18T16:28:55.461Z,4.50
2017-05-18T16:31:23.116Z,6.62
2017-05-18T16:33:49.809Z,3.56
2017-05-18T16:36:16.468Z,6.12
2017-05-18T16:38:43.132Z,5.36
2017-05-18T16:41:09.824Z,4.52
2017-05-18T16:43:36.481Z,3.84
2017-05-18T16:46:03.146Z,4.58
2017-05-18T16:48:30.037Z,8.52
2017-05-18T16:50:56.699Z,4.52
2017-05-18T16:53:23.646Z,3.90
2017-05-18T16:55:50.311Z,8.66
2017-05-18T16:58:16.964Z,4.26
2017-05-18T17:00:43.666Z,4.98
2017-05-18T17:03:10.328Z,4.64
2017-05-18T17:05:36.987Z,5.04
2017-05-18T17:08:03.684Z,5.58
2017-05-18T17:10:30.345Z,5.10
2017-05-18T17:12:57.012Z,4.70
2017-05-18T17:15:23.814Z,5.02
2017-05-18T17:17:50.472Z,5.36
2017-05-18T17:20:17.148Z,6.28
2017-05-18T17:22:43.814Z,7.14
2017-05-18T17:25:10.474Z,5.58
2017-05-18T17:27:37.197Z,8.24
2017-05-18T17:30:04.005Z,7.52
2017-05-18T17:32:30.672Z,6.34
2017-05-18T17:34:57.366Z,6.16
2017-05-18T17:37:24.050Z,6.58
2017-05-18T17:39:50.711Z,7.98
2017-05-18T17:42:17.385Z,5.10
2017-05-18T17:44:44.068Z,5.12
2017-05-18T17:47:10.805Z,7.30
2017-05-18T17:49:37.494Z,5.62
2017-05-18T17:52:04.191Z,7.58
2017-05-18T17:54:30.849Z,5.20
2017-05-18T17:56:57.540Z,6.74
2017-05-18T17:59:24.199Z,5.86
2017-05-18T18:01:50.866Z,6.24
2017-05-18T18:04:17.564Z,5.70
2017-05-18T18:06:44.223Z,5.02
2017-05-18T18:09:10.881Z,5.40
2017-05-18T18:11:37.590Z,8.72
2017-05-18T18:14:04.248Z,6.76
2017-05-18T18:16:30.909Z,4.90
2017-05-18T18:18:57.608Z,5.86
2017-05-18T18:21:24.270Z,5.74
2017-05-18T18:23:50.933Z,6.32
2017-05-18T18:26:17.621Z,5.06
2017-05-18T18:28:44.282Z,6.28
2017-05-18T18:31:10.944Z,5.44
2017-05-18T18:33:37.634Z,6.00
2017-05-18T18:36:04.292Z,5.52
2017-05-18T18:38:30.954Z,6.48
2017-05-18T18:40:57.674Z,5.92
2017-05-18T18:43:24.333Z,5.68
2017-05-18T18:45:50.999Z,6.50
2017-05-18T18:48:17.702Z,5.32
2017-05-18T18:50:44.363Z,6.08
2017-05-18T18:53:11.043Z,8.32
2017-05-18T18:55:37.742Z,6.08
2017-05-18T18:58:04.420Z,5.88
2017-05-18T19:00:31.076Z,6.24
2017-05-18T19:02:57.766Z,6.64
2017-05-18T19:05:24.439Z,5.66
2017-05-18T19:07:51.117Z,6.60
2017-05-18T19:10:17.800Z,5.54
2017-05-18T19:12:44.458Z,5.46
2017-05-18T19:15:11.120Z,6.18
2017-05-18T19:17:37.837Z,7.32
2017-05-18T19:20:04.505Z,6.06
2017-05-18T19:22:31.167Z,5.40
2017-05-18T19:24:57.852Z,7.02
2017-05-18T19:27:25.700Z,5.32
2017-05-18T19:29:52.357Z,5.58
2017-05-18T19:32:19.050Z,5.30
2017-05-18T19:34:45.737Z,5.10
2017-05-18T19:37:12.402Z,5.28
2017-05-18T19:39:39.393Z,5.40
2017-05-18T19:42:06.055Z,5.06
2017-05-18T19:44:32.724Z,5.96
2017-05-18T19:46:59.425Z,6.58
2017-05-18T19:49:26.289Z,5.04
2017-05-18T19:51:52.997Z,7.76
2017-05-18T19:54:19.664Z,5.10
2017-05-18T19:56:46.321Z,4.88
2017-05-18T19:59:13.021Z,5.34
2017-05-18T20:01:39.680Z,7.40
2017-05-18T20:04:06.341Z,6.38
2017-05-18T20:06:33.024Z,6.98
2017-05-18T20:08:59.687Z,6.82
2017-05-18T20:11:26.380Z,5.54
2017-05-18T20:13:53.078Z,5.90
2017-05-18T20:16:19.757Z,6.24
2017-05-18T20:18:46.560Z,6.64
2017-05-18T20:21:13.238Z,4.86
2017-05-18T20:23:39.968Z,8.16
2017-05-18T20:26:06.691Z,5.46
2017-05-18T20:28:33.357Z,5.22
2017-05-18T20:31:00.076Z,5.90
2017-05-18T20:33:26.764Z,5.50
2017-05-18T20:35:53.631Z,5.30
2017-05-18T20:38:20.305Z,7.80
2017-05-18T20:40:47.041Z,5.22
2017-05-18T20:43:13.877Z,6.38
2017-05-18T20:45:40.561Z,5.90
2017-05-18T20:48:07.504Z,6.42
2017-05-18T20:50:34.198Z,5.28
2017-05-18T20:53:00.927Z,6.02
2017-05-18T20:55:27.625Z,6.06
2017-05-18T20:57:54.337Z,6.52
2017-05-18T21:00:21.065Z,5.68
2017-05-18T21:02:47.809Z,5.90
2017-05-18T21:05:14.535Z,5.86
2017-05-18T21:07:41.283Z,8.58
2017-05-18T21:10:08.199Z,6.24
2017-05-18T21:12:34.888Z,6.76
2017-05-18T21:15:01.606Z,6.76
2017-05-18T21:17:28.301Z,6.02
2017-05-18T21:19:55.444Z,8.56
2017-05-18T21:22:22.163Z,6.86
2017-05-18T21:24:48.860Z,7.18
2017-05-18T21:27:15.556Z,6.60
2017-05-18T21:29:42.288Z,6.54
2017-05-18T21:32:09.236Z,6.68
2017-05-18T21:34:35.930Z,8.08
2017-05-18T21:37:02.716Z,6.12
2017-05-18T21:39:29.414Z,7.28
2017-05-18T21:41:56.115Z,6.72
2017-05-18T21:44:22.794Z,6.40
2017-05-18T21:46:49.503Z,8.10
2017-05-18T21:49:16.188Z,7.92
2017-05-18T21:51:43.049Z,13.26
2017-05-18T21:54:09.751Z,7.14
2017-05-18T21:56:36.434Z,7.22
2017-05-18T21:59:03.159Z,6.82
2017-05-18T22:01:29.865Z,7.44
2017-05-18T22:03:56.557Z,7.20
2017-05-18T22:06:23.246Z,7.20
2017-05-18T22:08:49.935Z,8.98
2017-05-18T22:11:16.623Z,7.98
2017-05-18T22:13:43.362Z,6.30
2017-05-18T22:16:10.047Z,9.10
2017-05-18T22:18:36.735Z,7.34
2017-05-18T22:21:03.482Z,6.94
2017-05-18T22:23:30.167Z,7.78
2017-05-18T22:25:57.114Z,7.12
2017-05-18T22:28:23.805Z,6.22
2017-05-18T22:30:50.491Z,6.86
2017-05-18T22:33:17.164Z,6.98
2017-05-18T22:35:43.858Z,8.20
2017-05-18T22:38:10.558Z,6.92
2017-05-18T22:40:37.236Z,7.30
2017-05-18T22:43:04.297Z,7.22
2017-05-18T22:45:31.017Z,9.98
2017-05-18T22:47:57.720Z,7.44
2017-05-18T22:50:24.466Z,7.70
2017-05-18T22:52:51.155Z,8.32
2017-05-18T22:55:17.842Z,7.70
2017-05-18T22:57:44.536Z,13.20
2017-05-18T23:00:11.237Z,8.10
2017-05-18T23:02:37.967Z,9.48
2017-05-18T23:05:04.650Z,9.06
2017-05-18T23:07:31.438Z,9.14
2017-05-18T23:09:58.126Z,8.88
2017-05-18T23:12:25.078Z,9.36
2017-05-18T23:14:51.764Z,9.02
2017-05-18T23:17:18.456Z,8.46
2017-05-18T23:19:45.141Z,9.56
2017-05-18T23:22:11.820Z,9.10
2017-05-18T23:24:38.501Z,8.52
2017-05-18T23:27:05.194Z,9.50
2017-05-18T23:29:31.896Z,9.52
2017-05-18T23:31:58.589Z,11.96
2017-05-18T23:34:25.529Z,10.12
2017-05-18T23:36:52.247Z,9.16
2017-05-18T23:39:18.959Z,9.00
2017-05-18T23:41:45.851Z,10.06
2017-05-18T23:44:12.525Z,9.92
2017-05-18T23:46:39.409Z,10.30
2017-05-18T23:49:06.140Z,10.18
2017-05-18T23:51:32.868Z,10.02
2017-05-18T23:53:59.576Z,10.48
2017-05-18T23:56:26.272Z,11.56
2017-05-18T23:58:53.078Z,9.12
